Station History

Weather Underground - logo

Station Historical Data
Daily Summary for November 5, 2017 Units:  English    Metric   Both
« Previous Day
Next Day »
Daily Weekly Monthly Yearly Custom
  High: Low: Average:
Temperature: 65.0 °F 45.1 °F 56.3 °F
Dew Point: 53.2 °F 41.5 °F 47 °F
Humidity: 91 % 50 % 72 %
Wind Speed: 4.6 mph 0.0 mph 0.8 mph
Wind Gust: 4.6 mph - -
Wind:- - WNW
Pressure: 30.15 in 30.00 in -
Precipitation: 0.00 in    
Historical Graphs
 
 
Tabular Data for November 5, 2017
Time Temperature Dew Point Pressure Wind Wind Speed Wind Gust Humidity Rainfall Rate (Hourly)
00:03 56.5 °F 51.7 °F 30.00 in Calm     84 % 0.00 in
00:08 56.2 °F 51.7 °F 30.00 in Calm     85 % 0.00 in
00:13 55.9 °F 51.5 °F 30.01 in Calm     85 % 0.00 in
00:18 55.6 °F 51.2 °F 30.01 in Calm     85 % 0.00 in
00:23 55.5 °F 51.4 °F 30.01 in Calm     86 % 0.00 in
00:28 55.6 °F 51.8 °F 30.01 in Calm     87 % 0.00 in
00:33 55.9 °F 51.8 °F 30.01 in Calm     86 % 0.00 in
00:38 56.3 °F 52.2 °F 30.01 in Calm     86 % 0.00 in
00:43 56.4 °F 52.3 °F 30.02 in Calm     86 % 0.00 in
00:48 56.4 °F 52.3 °F 30.02 in Calm     86 % 0.00 in
00:53 56.4 °F 52.3 °F 30.02 in Calm     86 % 0.00 in
00:58 56.3 °F 52.2 °F 30.02 in Calm     86 % 0.00 in
01:03 56.2 °F 52.1 °F 30.02 in Calm     86 % 0.00 in
01:08 56.2 °F 52.4 °F 30.02 in Calm     87 % 0.00 in
01:13 56.2 °F 52.4 °F 30.03 in Calm     87 % 0.00 in
01:18 56.1 °F 52.3 °F 30.03 in Calm     87 % 0.00 in
01:23 56.3 °F 52.5 °F 30.03 in Calm     87 % 0.00 in
01:28 56.8 °F 53.0 °F 30.03 in Calm     87 % 0.00 in
01:33 57.2 °F 53.0 °F 30.02 in Calm     86 % 0.00 in
01:38 57.4 °F 52.9 °F 30.02 in Calm     85 % 0.00 in
01:43 57.5 °F 53.0 °F 30.02 in Calm     85 % 0.00 in
01:48 57.4 °F 52.9 °F 30.02 in Calm     85 % 0.00 in
01:53 57.2 °F 52.7 °F 30.03 in Calm     85 % 0.00 in
01:58 56.9 °F 52.4 °F 30.03 in Calm     85 % 0.00 in
01:03 56.5 °F 52.4 °F 30.03 in Calm     86 % 0.00 in
01:08 55.9 °F 52.1 °F 30.03 in Calm     87 % 0.00 in
01:13 55.5 °F 52.0 °F 30.03 in Calm     88 % 0.00 in
01:18 55.4 °F 51.9 °F 30.03 in Calm     88 % 0.00 in
01:23 55.2 °F 51.7 °F 30.03 in Calm     88 % 0.00 in
01:28 55.0 °F 51.8 °F 30.03 in Calm     89 % 0.00 in
01:33 55.1 °F 52.2 °F 30.03 in Calm     90 % 0.00 in
01:38 55.5 °F 52.6 °F 30.03 in Calm     90 % 0.00 in
01:43 55.8 °F 52.6 °F 30.03 in Calm     89 % 0.00 in
01:48 56.1 °F 52.9 °F 30.03 in Calm     89 % 0.00 in
01:53 56.2 °F 53.0 °F 30.03 in Calm     89 % 0.00 in
01:58 56.3 °F 53.1 °F 30.03 in Calm     89 % 0.00 in
02:03 56.3 °F 53.1 °F 30.03 in Calm     89 % 0.00 in
02:08 56.3 °F 52.8 °F 30.03 in Calm     88 % 0.00 in
02:13 56.4 °F 53.2 °F 30.03 in Calm     89 % 0.00 in
02:18 56.4 °F 53.2 °F 30.03 in Calm     89 % 0.00 in
02:23 56.3 °F 53.1 °F 30.03 in Calm     89 % 0.00 in
02:28 56.2 °F 53.0 °F 30.03 in Calm     89 % 0.00 in
02:33 56.1 °F 52.9 °F 30.03 in Calm     89 % 0.00 in
02:38 56.0 °F 52.8 °F 30.03 in Calm     89 % 0.00 in
02:43 56.1 °F 52.9 °F 30.03 in Calm     89 % 0.00 in
02:48 56.1 °F 52.9 °F 30.03 in Calm     89 % 0.00 in
02:53 56.0 °F 52.8 °F 30.03 in North 1.2 mph   89 % 0.00 in
02:58 55.7 °F 52.5 °F 30.03 in Calm     89 % 0.00 in
03:03 55.4 °F 52.5 °F 30.03 in Calm     90 % 0.00 in
03:08 55.1 °F 52.2 °F 30.03 in Calm     90 % 0.00 in
03:13 55.0 °F 52.1 °F 30.03 in Calm     90 % 0.00 in
03:18 55.0 °F 52.1 °F 30.04 in Calm     90 % 0.00 in
03:23 55.0 °F 52.1 °F 30.04 in Calm     90 % 0.00 in
03:28 55.2 °F 52.3 °F 30.04 in Calm     90 % 0.00 in
03:33 55.4 °F 52.5 °F 30.04 in Calm     90 % 0.00 in
03:38 55.4 °F 52.5 °F 30.04 in Calm     90 % 0.00 in
03:43 55.5 °F 52.6 °F 30.04 in North 1.2 mph   90 % 0.00 in
03:48 55.7 °F 52.8 °F 30.04 in Calm     90 % 0.00 in
03:53 55.9 °F 52.7 °F 30.04 in Calm     89 % 0.00 in
03:58 56.0 °F 52.8 °F 30.04 in Calm     89 % 0.00 in
04:03 56.2 °F 52.7 °F 30.04 in Calm     88 % 0.00 in
04:08 56.2 °F 52.7 °F 30.04 in Calm     88 % 0.00 in
04:13 56.2 °F 52.7 °F 30.05 in Calm     88 % 0.00 in
04:18 56.0 °F 52.5 °F 30.05 in Calm     88 % 0.00 in
04:23 55.8 °F 52.6 °F 30.05 in Calm     89 % 0.00 in
04:28 55.7 °F 52.5 °F 30.05 in Calm     89 % 0.00 in
04:33 55.4 °F 52.5 °F 30.05 in Calm     90 % 0.00 in
04:38 55.2 °F 52.3 °F 30.06 in Calm     90 % 0.00 in
04:44 54.9 °F 52.0 °F 30.06 in Calm     90 % 0.00 in
04:49 54.6 °F 51.7 °F 30.06 in Calm     90 % 0.00 in
04:54 54.3 °F 51.4 °F 30.06 in Calm     90 % 0.00 in
04:59 54.1 °F 51.5 °F 30.06 in Calm     91 % 0.00 in
05:04 53.9 °F 51.3 °F 30.06 in Calm     91 % 0.00 in
05:09 53.8 °F 51.2 °F 30.06 in Calm     91 % 0.00 in
05:14 53.8 °F 51.2 °F 30.06 in Calm     91 % 0.00 in
05:19 53.7 °F 51.1 °F 30.06 in Calm     91 % 0.00 in
05:24 53.6 °F 51.0 °F 30.07 in Calm     91 % 0.00 in
05:29 53.7 °F 51.1 °F 30.07 in Calm     91 % 0.00 in
05:34 53.7 °F 50.8 °F 30.07 in Calm     90 % 0.00 in
05:36 53.8 °F 50.9 °F 30.07 in Calm     90 % 0.00 in
05:41 53.7 °F 50.8 °F 30.07 in Calm     90 % 0.00 in
05:46 53.8 °F 50.9 °F 30.08 in Calm     90 % 0.00 in
05:50 53.7 °F 50.8 °F 30.08 in Calm     90 % 0.00 in
05:55 53.7 °F 50.8 °F 30.08 in Calm     90 % 0.00 in
06:00 53.7 °F 50.5 °F 30.09 in Calm     89 % 0.00 in
06:05 53.7 °F 50.5 °F 30.09 in WSW 1.0 mph 1.0 mph 89 % 0.00 in
06:10 53.7 °F 50.5 °F 30.09 in NNW 2.3 mph 2.3 mph 89 % 0.00 in
06:15 53.6 °F 49.5 °F 30.09 in WNW 1.2 mph 1.2 mph 86 % 0.00 in
06:20 53.6 °F 48.2 °F 30.09 in NW 3.5 mph 3.5 mph 82 % 0.00 in
06:25 53.5 °F 47.5 °F 30.09 in NW 1.2 mph 1.2 mph 80 % 0.00 in
06:30 53.5 °F 46.5 °F 30.09 in NW 2.3 mph 2.3 mph 77 % 0.00 in
06:35 53.4 °F 45.7 °F 30.09 in NNW 3.5 mph 3.5 mph 75 % 0.00 in
06:40 53.2 °F 45.1 °F 30.10 in NW 1.2 mph 1.2 mph 74 % 0.00 in
06:45 53.0 °F 44.9 °F 30.10 in NW 1.2 mph 1.2 mph 74 % 0.00 in
06:50 52.9 °F 44.5 °F 30.10 in NW 1.2 mph 1.2 mph 73 % 0.00 in
06:51 52.9 °F 44.5 °F 30.10 in WNW 1.2 mph   73 % 0.00 in
06:56 52.9 °F 44.5 °F 30.10 in NW 1.2 mph   73 % 0.00 in
07:01 52.9 °F 44.8 °F 30.11 in Calm     74 % 0.00 in
07:06 53.0 °F 44.9 °F 30.11 in Calm     74 % 0.00 in
07:11 53.1 °F 45.0 °F 30.11 in NW 1.0 mph 1.0 mph 74 % 0.00 in
07:16 53.2 °F 44.0 °F 30.11 in NW 1.2 mph 1.2 mph 71 % 0.00 in
07:21 53.2 °F 43.7 °F 30.12 in NW 1.2 mph   70 % 0.00 in
07:26 53.2 °F 42.9 °F 30.12 in NW 2.3 mph   68 % 0.00 in
07:31 53.2 °F 42.9 °F 30.12 in Calm     68 % 0.00 in
07:36 53.4 °F 43.1 °F 30.12 in Calm     68 % 0.00 in
07:41 53.6 °F 42.9 °F 30.12 in NW 1.2 mph   67 % 0.00 in
07:46 53.9 °F 44.0 °F 30.13 in North 1.2 mph   69 % 0.00 in
07:51 54.0 °F 43.7 °F 30.13 in Calm     68 % 0.00 in
07:56 53.9 °F 43.2 °F 30.13 in West 1.2 mph 1.2 mph 67 % 0.00 in
08:01 53.7 °F 43.4 °F 30.13 in Calm     68 % 0.00 in
08:06 53.7 °F 42.6 °F 30.13 in WNW 2.3 mph 2.3 mph 66 % 0.00 in
08:11 53.6 °F 41.7 °F 30.13 in NW 3.5 mph 3.5 mph 64 % 0.00 in
08:16 53.5 °F 42.0 °F 30.13 in NW 3.5 mph 3.5 mph 65 % 0.00 in
08:21 53.6 °F 42.1 °F 30.14 in NW 1.2 mph 1.2 mph 65 % 0.00 in
08:31 54.3 °F 43.2 °F 30.14 in NW 1.2 mph 1.2 mph 66 % 0.00 in
08:37 54.4 °F 42.5 °F 30.14 in WNW 2.3 mph 2.3 mph 64 % 0.00 in
08:42 54.5 °F 43.0 °F 30.14 in Calm   0.8 mph 65 % 0.00 in
08:47 54.8 °F 42.9 °F 30.14 in NNE 3.5 mph 3.5 mph 64 % 0.00 in
08:52 55.3 °F 42.9 °F 30.14 in NW 2.3 mph 2.3 mph 63 % 0.00 in
08:57 55.5 °F 43.1 °F 30.14 in NW 2.3 mph 2.3 mph 63 % 0.00 in
09:02 55.8 °F 43.4 °F 30.14 in NW 2.3 mph 2.3 mph 63 % 0.00 in
09:07 56.0 °F 43.6 °F 30.14 in NW 1.2 mph 1.2 mph 63 % 0.00 in
09:12 56.2 °F 43.3 °F 30.14 in WNW 1.2 mph 1.2 mph 62 % 0.00 in
09:17 56.4 °F 43.5 °F 30.14 in WNW 2.3 mph 2.3 mph 62 % 0.00 in
09:22 56.6 °F 43.7 °F 30.14 in NW 1.2 mph 1.2 mph 62 % 0.00 in
09:27 56.9 °F 44.4 °F 30.14 in NW 1.2 mph 1.2 mph 63 % 0.00 in
09:32 57.2 °F 44.7 °F 30.14 in NW 1.2 mph 1.2 mph 63 % 0.00 in
09:37 57.2 °F 44.3 °F 30.14 in NW 2.3 mph 2.3 mph 62 % 0.00 in
09:38 57.2 °F 44.3 °F 30.14 in NW 1.2 mph 1.2 mph 62 % 0.00 in
09:43 57.3 °F 44.4 °F 30.14 in NW 2.3 mph 2.3 mph 62 % 0.00 in
09:48 57.5 °F 45.0 °F 30.15 in NW 1.2 mph 1.2 mph 63 % 0.00 in
09:53 57.5 °F 44.1 °F 30.15 in NW 1.2 mph 1.2 mph 61 % 0.00 in
09:58 57.8 °F 45.3 °F 30.15 in Calm     63 % 0.00 in
10:03 58.0 °F 45.0 °F 30.15 in WNW 1.0 mph   62 % 0.00 in
10:08 58.4 °F 45.0 °F 30.15 in Calm     61 % 0.00 in
10:13 58.6 °F 44.8 °F 30.15 in Calm     60 % 0.00 in
10:18 59.0 °F 45.1 °F 30.14 in WNW 2.3 mph 2.3 mph 60 % 0.00 in
10:23 58.8 °F 44.5 °F 30.15 in WNW 1.2 mph   59 % 0.00 in
10:28 59.0 °F 45.6 °F 30.15 in Calm     61 % 0.00 in
10:33 59.6 °F 46.1 °F 30.15 in NW 1.2 mph 1.2 mph 61 % 0.00 in
10:38 60.0 °F 45.6 °F 30.14 in Calm     59 % 0.00 in
10:43 60.1 °F 46.6 °F 30.15 in NNW 1.2 mph 1.2 mph 61 % 0.00 in
10:48 60.5 °F 47.4 °F 30.14 in NE 1.2 mph 1.2 mph 62 % 0.00 in
10:53 60.7 °F 46.3 °F 30.14 in North 3.5 mph 3.5 mph 59 % 0.00 in
10:58 60.9 °F 46.5 °F 30.14 in Calm     59 % 0.00 in
11:03 61.6 °F 47.6 °F 30.13 in WSW 1.2 mph 1.2 mph 60 % 0.00 in
11:08 61.8 °F 48.2 °F 30.13 in South 2.3 mph 2.3 mph 61 % 0.00 in
11:13 62.2 °F 46.8 °F 30.13 in NNE 1.2 mph 1.2 mph 57 % 0.00 in
11:18 62.2 °F 46.8 °F 30.12 in ESE 1.2 mph 1.2 mph 57 % 0.00 in
11:23 62.3 °F 46.9 °F 30.12 in Calm   0.2 mph 57 % 0.00 in
11:28 62.6 °F 46.7 °F 30.12 in SE 2.0 mph 2.0 mph 56 % 0.00 in
11:33 62.9 °F 47.0 °F 30.12 in Calm     56 % 0.00 in
11:38 63.2 °F 47.2 °F 30.11 in Calm     56 % 0.00 in
11:43 63.5 °F 47.0 °F 30.11 in Calm     55 % 0.00 in
11:48 63.2 °F 46.3 °F 30.11 in NW 1.2 mph 1.2 mph 54 % 0.00 in
11:53 63.1 °F 46.2 °F 30.10 in NW 1.2 mph 1.2 mph 54 % 0.00 in
11:59 63.3 °F 46.9 °F 30.10 in North 1.2 mph 1.2 mph 55 % 0.00 in
12:04 63.8 °F 46.8 °F 30.10 in NNW 2.3 mph 2.3 mph 54 % 0.00 in
12:09 63.9 °F 47.4 °F 30.09 in NW 1.2 mph 1.2 mph 55 % 0.00 in
12:14 63.8 °F 47.3 °F 30.09 in NW 2.3 mph 2.3 mph 55 % 0.00 in
12:19 63.8 °F 47.3 °F 30.09 in NW 2.3 mph 2.3 mph 55 % 0.00 in
12:24 63.9 °F 46.9 °F 30.08 in ESE 1.2 mph 1.2 mph 54 % 0.00 in
12:29 64.5 °F 47.5 °F 30.08 in NNW 2.3 mph 2.3 mph 54 % 0.00 in
12:34 64.6 °F 48.1 °F 30.08 in West 1.2 mph 1.2 mph 55 % 0.00 in
12:39 64.9 °F 47.9 °F 30.08 in NW 2.3 mph 2.3 mph 54 % 0.00 in
12:44 64.6 °F 46.6 °F 30.08 in NW 3.5 mph 3.5 mph 52 % 0.00 in
12:49 64.4 °F 46.4 °F 30.08 in West 3.5 mph 3.5 mph 52 % 0.00 in
12:54 64.6 °F 46.6 °F 30.08 in North 3.5 mph 3.5 mph 52 % 0.00 in
12:59 64.2 °F 46.2 °F 30.08 in NW 1.2 mph 1.2 mph 52 % 0.00 in
13:04 64.3 °F 45.8 °F 30.08 in WNW 3.5 mph 3.5 mph 51 % 0.00 in
13:09 64.5 °F 46.5 °F 30.08 in NW 3.5 mph 3.5 mph 52 % 0.00 in
13:14 64.6 °F 46.1 °F 30.08 in NW 1.2 mph 1.2 mph 51 % 0.00 in
13:19 65.0 °F 46.4 °F 30.08 in NNW 3.5 mph 3.5 mph 51 % 0.00 in
13:24 64.9 °F 46.8 °F 30.07 in NW 2.3 mph 2.3 mph 52 % 0.00 in
13:29 64.8 °F 45.7 °F 30.07 in West 3.5 mph 3.5 mph 50 % 0.00 in
13:34 64.9 °F 46.8 °F 30.07 in West 2.3 mph 2.3 mph 52 % 0.00 in
13:39 64.8 °F 45.7 °F 30.07 in NNW 2.3 mph 2.3 mph 50 % 0.00 in
13:44 64.8 °F 45.7 °F 30.07 in NW 4.6 mph 4.6 mph 50 % 0.00 in
13:49 64.6 °F 46.6 °F 30.07 in NW 2.3 mph 2.3 mph 52 % 0.00 in
13:54 64.8 °F 46.2 °F 30.07 in NW 1.2 mph 1.2 mph 51 % 0.00 in
13:59 64.6 °F 46.1 °F 30.07 in West 3.5 mph 3.5 mph 51 % 0.00 in
14:04 64.5 °F 46.0 °F 30.07 in WNW 2.3 mph 2.3 mph 51 % 0.00 in
14:09 64.3 °F 45.8 °F 30.06 in WNW 2.0 mph 2.0 mph 51 % 0.00 in
14:14 64.4 °F 46.4 °F 30.06 in Calm     52 % 0.00 in
14:19 64.7 °F 46.1 °F 30.06 in South 1.2 mph   51 % 0.00 in
14:24 64.9 °F 46.8 °F 30.06 in North 1.2 mph 1.2 mph 52 % 0.00 in
14:29 65.0 °F 46.4 °F 30.06 in NW 1.2 mph 1.2 mph 51 % 0.00 in
14:34 65.0 °F 46.9 °F 30.06 in NW 1.0 mph 1.0 mph 52 % 0.00 in
14:39 64.8 °F 46.8 °F 30.06 in NNW 3.5 mph 3.5 mph 52 % 0.00 in
14:44 64.6 °F 46.6 °F 30.06 in North 2.3 mph 2.3 mph 52 % 0.00 in
14:49 64.5 °F 47.0 °F 30.06 in WNW 1.2 mph 1.2 mph 53 % 0.00 in
14:54 64.5 °F 46.5 °F 30.06 in NW 2.3 mph 2.3 mph 52 % 0.00 in
14:59 64.4 °F 46.9 °F 30.06 in NW 2.3 mph 2.3 mph 53 % 0.00 in
15:04 64.3 °F 46.3 °F 30.05 in NW 2.3 mph   52 % 0.00 in
15:09 64.3 °F 46.8 °F 30.05 in Calm     53 % 0.00 in
15:14 64.3 °F 46.8 °F 30.05 in NW 2.3 mph 2.3 mph 53 % 0.00 in
15:19 64.4 °F 46.4 °F 30.05 in West 1.0 mph 1.0 mph 52 % 0.00 in
15:24 64.3 °F 46.8 °F 30.05 in WNW 1.2 mph 1.2 mph 53 % 0.00 in
15:29 64.1 °F 46.6 °F 30.05 in WNW 1.2 mph 1.2 mph 53 % 0.00 in
15:34 63.8 °F 46.8 °F 30.05 in WNW 1.2 mph 1.2 mph 54 % 0.00 in
15:40 63.6 °F 47.1 °F 30.05 in NNW 3.5 mph 3.5 mph 55 % 0.00 in
15:45 63.3 °F 46.4 °F 30.05 in NW 2.3 mph 2.3 mph 54 % 0.00 in
15:50 63.0 °F 46.6 °F 30.05 in NW 1.2 mph 1.2 mph 55 % 0.00 in
15:55 62.8 °F 46.4 °F 30.05 in NW 3.5 mph 3.5 mph 55 % 0.00 in
16:00 62.6 °F 46.7 °F 30.04 in WNW 2.3 mph 2.3 mph 56 % 0.00 in
16:05 62.3 °F 46.9 °F 30.05 in West 2.3 mph 2.3 mph 57 % 0.00 in
16:10 62.1 °F 46.2 °F 30.05 in NW 2.3 mph 2.3 mph 56 % 0.00 in
16:15 61.8 °F 46.9 °F 30.05 in NNW 2.0 mph 2.0 mph 58 % 0.00 in
16:20 61.5 °F 46.6 °F 30.05 in NNW 1.2 mph 1.2 mph 58 % 0.00 in
16:25 61.1 °F 46.2 °F 30.04 in NW 3.5 mph 3.5 mph 58 % 0.00 in
16:30 60.8 °F 46.4 °F 30.04 in WNW 2.3 mph 2.3 mph 59 % 0.00 in
16:40 60.1 °F 45.7 °F 30.04 in North 1.2 mph 1.2 mph 59 % 0.00 in
16:45 59.8 °F 45.9 °F 30.04 in NW 2.3 mph 2.3 mph 60 % 0.00 in
16:50 59.5 °F 45.6 °F 30.04 in NW 1.2 mph 1.2 mph 60 % 0.00 in
16:55 59.2 °F 45.8 °F 30.04 in NW 1.2 mph   61 % 0.00 in
17:00 58.9 °F 45.9 °F 30.04 in NW 1.2 mph 1.2 mph 62 % 0.00 in
17:05 58.6 °F 45.6 °F 30.04 in NW 2.0 mph 2.0 mph 62 % 0.00 in
17:10 58.3 °F 45.8 °F 30.04 in WNW 2.3 mph 2.3 mph 63 % 0.00 in
17:15 58.0 °F 45.5 °F 30.04 in NW 1.2 mph   63 % 0.00 in
17:20 57.7 °F 45.2 °F 30.04 in NNW 1.2 mph 1.2 mph 63 % 0.00 in
17:25 57.4 °F 45.3 °F 30.04 in Calm   0.1 mph 64 % 0.00 in
17:30 57.1 °F 45.0 °F 30.04 in NW 2.3 mph   64 % 0.00 in
17:35 56.8 °F 45.2 °F 30.05 in NW 1.2 mph 1.2 mph 65 % 0.00 in
17:41 56.5 °F 45.3 °F 30.05 in NW 1.2 mph 1.2 mph 66 % 0.00 in
17:46 56.2 °F 45.0 °F 30.05 in Calm     66 % 0.00 in
17:51 55.9 °F 45.1 °F 30.05 in Calm     67 % 0.00 in
17:56 55.6 °F 45.2 °F 30.05 in Calm     68 % 0.00 in
18:01 55.3 °F 44.9 °F 30.05 in NW 1.2 mph   68 % 0.00 in
18:06 55.0 °F 44.6 °F 30.05 in NW 1.2 mph 1.2 mph 68 % 0.00 in
18:11 54.8 °F 44.8 °F 30.05 in WNW 1.2 mph 1.2 mph 69 % 0.00 in
18:16 54.6 °F 44.6 °F 30.05 in Calm     69 % 0.00 in
18:21 54.4 °F 44.4 °F 30.05 in Calm     69 % 0.00 in
18:26 54.2 °F 44.6 °F 30.06 in NW 1.2 mph 1.2 mph 70 % 0.00 in
18:31 53.9 °F 44.7 °F 30.06 in NW 1.2 mph   71 % 0.00 in
18:36 53.7 °F 44.5 °F 30.06 in NNW 1.2 mph 1.2 mph 71 % 0.00 in
18:41 53.6 °F 44.4 °F 30.06 in Calm     71 % 0.00 in
18:46 53.6 °F 44.4 °F 30.06 in Calm     71 % 0.00 in
18:51 53.5 °F 44.3 °F 30.06 in Calm     71 % 0.00 in
18:56 53.4 °F 44.2 °F 30.06 in Calm     71 % 0.00 in
19:06 53.2 °F 44.0 °F 30.07 in Calm     71 % 0.00 in
19:11 53.0 °F 44.2 °F 30.07 in Calm     72 % 0.00 in
19:17 52.8 °F 44.4 °F 30.07 in Calm     73 % 0.00 in
19:20 52.7 °F 44.3 °F 30.07 in Calm     73 % 0.00 in
19:23 52.6 °F 44.2 °F 30.07 in Calm     73 % 0.00 in
19:24 52.6 °F 44.2 °F 30.07 in Calm     73 % 0.00 in
19:28 52.5 °F 44.1 °F 30.07 in Calm     73 % 0.00 in
19:33 52.3 °F 44.3 °F 30.07 in Calm     74 % 0.00 in
19:35 52.2 °F 44.2 °F 30.07 in Calm     74 % 0.00 in
19:40 52.1 °F 44.4 °F 30.07 in Calm     75 % 0.00 in
19:45 52.1 °F 44.1 °F 30.07 in Calm     74 % 0.00 in
19:50 52.2 °F 44.2 °F 30.07 in Calm     74 % 0.00 in
19:55 52.2 °F 44.2 °F 30.07 in Calm     74 % 0.00 in
20:00 52.2 °F 44.2 °F 30.07 in Calm     74 % 0.00 in
20:05 52.2 °F 44.2 °F 30.07 in Calm     74 % 0.00 in
20:10 52.1 °F 44.1 °F 30.07 in Calm     74 % 0.00 in
20:15 52.0 °F 44.0 °F 30.07 in NNW 1.2 mph   74 % 0.00 in
20:20 52.1 °F 44.1 °F 30.08 in Calm     74 % 0.00 in
20:25 52.1 °F 44.1 °F 30.08 in Calm     74 % 0.00 in
20:30 52.0 °F 44.0 °F 30.08 in Calm     74 % 0.00 in
20:35 51.8 °F 44.1 °F 30.08 in Calm     75 % 0.00 in
20:40 51.7 °F 44.0 °F 30.08 in Calm     75 % 0.00 in
20:45 51.6 °F 43.9 °F 30.08 in Calm     75 % 0.00 in
20:50 51.6 °F 43.9 °F 30.08 in Calm     75 % 0.00 in
20:55 51.6 °F 43.9 °F 30.08 in Calm     75 % 0.00 in
21:00 51.5 °F 43.8 °F 30.08 in Calm     75 % 0.00 in
21:05 51.4 °F 43.7 °F 30.08 in Calm     75 % 0.00 in
21:10 51.2 °F 43.9 °F 30.08 in Calm     76 % 0.00 in
21:15 51.1 °F 43.8 °F 30.08 in WNW 1.2 mph 1.2 mph 76 % 0.00 in
21:20 51.0 °F 43.7 °F 30.08 in Calm     76 % 0.00 in
21:25 51.0 °F 44.0 °F 30.08 in North 1.0 mph   77 % 0.00 in
21:30 50.8 °F 43.8 °F 30.08 in Calm     77 % 0.00 in
21:35 50.6 °F 43.7 °F 30.08 in Calm   0.1 mph 77 % 0.00 in
21:40 50.4 °F 43.5 °F 30.08 in Calm     77 % 0.00 in
21:45 50.3 °F 43.7 °F 30.08 in Calm   0.1 mph 78 % 0.00 in
21:50 50.1 °F 43.5 °F 30.08 in Calm     78 % 0.00 in
21:55 50.0 °F 43.4 °F 30.08 in NNW 1.2 mph 1.2 mph 78 % 0.00 in
22:00 49.9 °F 43.3 °F 30.08 in Calm     78 % 0.00 in
22:05 49.9 °F 43.6 °F 30.08 in Calm     79 % 0.00 in
22:10 49.4 °F 43.2 °F 30.08 in Calm     79 % 0.00 in
22:15 48.7 °F 43.1 °F 30.08 in Calm     81 % 0.00 in
22:20 48.5 °F 42.9 °F 30.08 in Calm     81 % 0.00 in
22:25 48.4 °F 42.8 °F 30.08 in Calm     81 % 0.00 in
22:30 47.9 °F 42.7 °F 30.09 in Calm     82 % 0.00 in
22:35 47.3 °F 42.4 °F 30.08 in Calm     83 % 0.00 in
22:40 46.9 °F 42.3 °F 30.09 in Calm     84 % 0.00 in
22:45 46.7 °F 42.1 °F 30.09 in Calm     84 % 0.00 in
22:51 46.7 °F 42.4 °F 30.09 in Calm     85 % 0.00 in
22:56 46.6 °F 42.3 °F 30.09 in Calm     85 % 0.00 in
23:01 46.5 °F 42.2 °F 30.09 in Calm     85 % 0.00 in
23:06 46.5 °F 42.2 °F 30.09 in Calm     85 % 0.00 in
23:11 46.3 °F 42.3 °F 30.09 in Calm     86 % 0.00 in
23:16 46.1 °F 42.1 °F 30.09 in Calm     86 % 0.00 in
23:21 46.2 °F 42.5 °F 30.10 in Calm     87 % 0.00 in
23:26 46.2 °F 42.5 °F 30.10 in Calm     87 % 0.00 in
23:31 46.1 °F 42.1 °F 30.10 in Calm     86 % 0.00 in
23:36 45.9 °F 42.2 °F 30.10 in Calm     87 % 0.00 in
23:41 45.7 °F 42.1 °F 30.10 in Calm     87 % 0.00 in
23:46 45.6 °F 42.0 °F 30.10 in Calm     87 % 0.00 in
23:51 45.3 °F 41.7 °F 30.10 in Calm     87 % 0.00 in
23:56 45.1 °F 41.5 °F 30.10 in Calm     87 % 0.00 in
Park Place, Exeter, Tulare County, California, USA
Compliments of Weather Underground - 2.75 mb